createdAt,value
2022-10-01T02:00:48.603Z,6.80
2022-10-01T02:01:09.265Z,6.90
2022-10-01T02:01:29.621Z,7.00
2022-10-01T02:01:50.207Z,6.60
2022-10-01T02:02:10.880Z,6.90
2022-10-01T02:02:33.415Z,7.00
2022-10-01T02:02:54.088Z,6.90
2022-10-01T02:03:14.664Z,6.90
2022-10-01T02:03:35.251Z,6.80
2022-10-01T02:03:55.644Z,7.00
2022-10-01T02:04:16.228Z,6.50
2022-10-01T02:04:36.819Z,7.00
2022-10-01T02:04:57.419Z,6.70
2022-10-01T02:05:17.997Z,6.60
2022-10-01T02:05:38.579Z,6.50
2022-10-01T02:05:59.167Z,6.40
2022-10-01T02:06:19.749Z,6.50
2022-10-01T02:06:40.344Z,6.70
2022-10-01T02:07:00.922Z,7.00
2022-10-01T02:07:21.505Z,6.80
2022-10-01T02:07:42.089Z,6.30
2022-10-01T02:08:02.667Z,6.60
2022-10-01T02:08:23.249Z,6.40
2022-10-01T02:08:43.833Z,6.90
2022-10-01T02:09:04.413Z,6.70
2022-10-01T02:09:24.996Z,6.40
2022-10-01T02:09:45.573Z,6.50
2022-10-01T02:10:06.178Z,6.70
2022-10-01T02:10:26.753Z,6.60
2022-10-01T02:10:47.333Z,6.60
2022-10-01T02:11:07.913Z,7.10
2022-10-01T02:11:28.496Z,6.80
2022-10-01T02:11:49.083Z,6.90
2022-10-01T02:12:09.480Z,6.10
2022-10-01T02:12:30.065Z,6.10
2022-10-01T02:12:50.648Z,6.40
2022-10-01T02:13:11.230Z,6.70
2022-10-01T02:13:31.808Z,6.80
2022-10-01T02:13:52.396Z,6.70
2022-10-01T02:14:12.976Z,6.60
2022-10-01T02:14:33.557Z,6.30
2022-10-01T02:14:54.144Z,6.10
2022-10-01T02:15:14.743Z,6.50
2022-10-01T02:15:35.391Z,6.70
2022-10-01T02:15:56.028Z,6.60
2022-10-01T02:16:16.668Z,6.60
2022-10-01T02:16:36.966Z,6.80
2022-10-01T02:16:57.548Z,6.70
2022-10-01T02:17:18.127Z,6.40
2022-10-01T02:17:38.711Z,6.70
2022-10-01T02:17:59.316Z,6.80
2022-10-01T02:18:19.879Z,6.30
2022-10-01T02:18:40.466Z,6.50
2022-10-01T02:19:01.049Z,6.60
2022-10-01T02:19:21.628Z,6.80
2022-10-01T02:19:42.210Z,6.80
2022-10-01T02:20:02.809Z,6.70
2022-10-01T02:20:23.389Z,6.30
2022-10-01T02:20:44.003Z,6.40
2022-10-01T02:21:04.558Z,6.50
2022-10-01T02:21:25.134Z,6.90
2022-10-01T02:21:45.715Z,6.60
2022-10-01T02:22:06.292Z,6.30
2022-10-01T02:22:26.878Z,6.50
2022-10-01T02:22:47.280Z,6.60
2022-10-01T02:23:07.860Z,6.80
2022-10-01T02:23:28.445Z,6.90
2022-10-01T02:23:49.033Z,6.50
2022-10-01T02:24:09.604Z,6.70
2022-10-01T02:24:30.188Z,6.80
2022-10-01T02:24:50.770Z,6.80
2022-10-01T02:25:11.362Z,6.80
2022-10-01T02:25:31.948Z,6.50
2022-10-01T02:25:52.527Z,6.30
2022-10-01T02:26:13.108Z,6.20
2022-10-01T02:26:33.692Z,6.40
2022-10-01T02:26:54.278Z,7.00
2022-10-01T02:27:14.856Z,6.30
2022-10-01T02:27:35.445Z,6.50
2022-10-01T02:27:56.098Z,6.30
2022-10-01T02:28:16.811Z,6.40
2022-10-01T02:28:37.416Z,6.30
2022-10-01T02:28:57.802Z,6.30
2022-10-01T02:29:18.384Z,6.40
2022-10-01T02:29:38.970Z,6.50
2022-10-01T02:29:59.548Z,6.50
2022-10-01T02:30:20.140Z,6.40
2022-10-01T02:30:40.718Z,6.40
2022-10-01T02:31:01.365Z,6.40
2022-10-01T02:31:21.940Z,6.60
2022-10-01T02:31:42.593Z,6.70
2022-10-01T02:32:03.149Z,6.50
2022-10-01T02:32:23.733Z,6.40
2022-10-01T02:32:44.318Z,6.40
2022-10-01T02:33:04.904Z,5.90
2022-10-01T02:33:25.486Z,6.70
2022-10-01T02:33:45.876Z,6.80
2022-10-01T02:34:09.701Z,7.00
2022-10-01T02:34:26.862Z,6.20
2022-10-01T02:34:47.454Z,6.60
2022-10-01T02:35:07.871Z,6.70
2022-10-01T02:35:28.444Z,6.40
2022-10-01T02:35:49.033Z,6.50
2022-10-01T02:36:09.614Z,6.50
2022-10-01T02:36:30.194Z,6.40
2022-10-01T02:36:50.593Z,6.40
2022-10-01T02:37:11.167Z,6.70
2022-10-01T02:37:31.754Z,6.50
2022-10-01T02:37:52.337Z,6.30
2022-10-01T02:38:12.915Z,6.30
2022-10-01T02:38:33.514Z,6.50
2022-10-01T02:38:54.099Z,6.50
2022-10-01T02:39:14.680Z,6.20
2022-10-01T02:39:35.262Z,6.20
2022-10-01T02:39:55.842Z,6.10
2022-10-01T02:40:16.468Z,6.50
2022-10-01T02:40:37.042Z,6.20
2022-10-01T02:40:57.621Z,6.00
2022-10-01T02:41:18.201Z,6.40
2022-10-01T02:41:38.790Z,6.60
2022-10-01T02:41:59.368Z,6.60
2022-10-01T02:42:19.949Z,6.00
2022-10-01T02:42:40.530Z,6.20
2022-10-01T02:43:01.110Z,6.30
2022-10-01T02:43:21.704Z,6.10
2022-10-01T02:43:43.169Z,6.40
2022-10-01T02:44:02.671Z,6.60
2022-10-01T02:44:23.254Z,6.30
2022-10-01T02:44:43.834Z,6.40
2022-10-01T02:45:04.430Z,6.50
2022-10-01T02:45:25.015Z,6.40
2022-10-01T02:45:45.694Z,6.30
2022-10-01T02:46:06.341Z,6.00
2022-10-01T02:46:26.903Z,6.20
2022-10-01T02:46:47.492Z,6.40
2022-10-01T02:47:08.068Z,6.50
2022-10-01T02:47:28.460Z,6.40
2022-10-01T02:47:49.044Z,6.20
2022-10-01T02:48:09.627Z,6.10
2022-10-01T02:48:30.208Z,6.10
2022-10-01T02:48:50.793Z,6.30
2022-10-01T02:49:11.371Z,6.20
2022-10-01T02:49:31.954Z,6.30
2022-10-01T02:49:52.534Z,6.20
2022-10-01T02:50:13.129Z,6.20
2022-10-01T02:50:33.522Z,6.40
2022-10-01T02:50:53.915Z,6.30
2022-10-01T02:51:14.496Z,6.30
2022-10-01T02:51:35.485Z,6.60
2022-10-01T02:51:56.261Z,6.30
2022-10-01T02:52:16.841Z,6.50
2022-10-01T02:52:37.424Z,6.50
2022-10-01T02:52:58.024Z,6.20
2022-10-01T02:53:18.612Z,6.10
2022-10-01T02:53:39.197Z,6.10
2022-10-01T02:53:59.776Z,6.30
2022-10-01T02:54:20.172Z,6.30
2022-10-01T02:54:40.751Z,6.10
2022-10-01T02:55:01.345Z,6.00
2022-10-01T02:55:21.930Z,6.30
2022-10-01T02:55:42.509Z,6.10
2022-10-01T02:56:03.105Z,6.50
2022-10-01T02:56:23.675Z,6.60
2022-10-01T02:56:48.878Z,6.40
2022-10-01T02:57:04.664Z,6.60
2022-10-01T02:57:25.246Z,6.60
2022-10-01T02:57:45.827Z,6.80
2022-10-01T02:58:06.406Z,6.40
2022-10-01T02:58:26.986Z,6.20
2022-10-01T02:58:47.582Z,6.50
2022-10-01T02:59:08.168Z,6.60
2022-10-01T02:59:28.749Z,6.20
2022-10-01T02:59:49.333Z,6.20
2022-10-01T03:00:09.930Z,6.60
2022-10-01T03:00:30.513Z,6.80
2022-10-01T03:00:51.096Z,6.40
2022-10-01T03:01:11.723Z,6.60
2022-10-01T03:01:32.735Z,6.60
2022-10-01T03:01:53.674Z,6.20
2022-10-01T03:02:14.495Z,6.50
2022-10-01T03:02:35.190Z,6.30
2022-10-01T03:02:55.776Z,6.20
2022-10-01T03:03:16.360Z,6.20
2022-10-01T03:03:36.939Z,6.60
2022-10-01T03:03:57.517Z,6.40
2022-10-01T03:04:18.100Z,6.20
2022-10-01T03:04:38.685Z,6.10
2022-10-01T03:04:59.262Z,6.30
2022-10-01T03:05:19.862Z,6.20
2022-10-01T03:05:40.447Z,6.10
2022-10-01T03:06:01.030Z,6.90
2022-10-01T03:06:21.609Z,6.20
2022-10-01T03:06:42.190Z,6.40
2022-10-01T03:07:02.776Z,6.40
2022-10-01T03:07:23.353Z,6.80
2022-10-01T03:07:43.936Z,6.40
2022-10-01T03:08:04.331Z,6.00
2022-10-01T03:08:24.914Z,6.40
2022-10-01T03:08:45.497Z,6.60
2022-10-01T03:09:06.076Z,6.40
2022-10-01T03:09:26.662Z,6.30
2022-10-01T03:09:47.244Z,6.40
2022-10-01T03:10:07.844Z,6.00
2022-10-01T03:10:28.421Z,6.00
2022-10-01T03:10:48.817Z,6.20
2022-10-01T03:11:09.400Z,6.10
2022-10-01T03:11:30.097Z,6.20
2022-10-01T03:11:50.745Z,6.50
2022-10-01T03:12:11.330Z,6.50
2022-10-01T03:12:31.909Z,6.60
2022-10-01T03:12:52.489Z,6.40
2022-10-01T03:13:13.066Z,6.10
2022-10-01T03:13:33.649Z,6.40
2022-10-01T03:13:54.230Z,6.30
2022-10-01T03:14:14.811Z,6.50
2022-10-01T03:14:35.388Z,6.30
2022-10-01T03:14:55.973Z,6.30
2022-10-01T03:15:16.571Z,6.50
2022-10-01T03:15:37.204Z,6.40
2022-10-01T03:15:57.865Z,6.30
2022-10-01T03:16:18.525Z,6.50
2022-10-01T03:16:39.076Z,6.50
2022-10-01T03:16:59.654Z,6.40
2022-10-01T03:17:20.234Z,6.30
2022-10-01T03:17:40.815Z,6.60
2022-10-01T03:18:01.207Z,6.60
2022-10-01T03:18:21.797Z,6.40
2022-10-01T03:18:42.376Z,6.00
2022-10-01T03:19:02.953Z,6.40
2022-10-01T03:19:23.534Z,6.20
2022-10-01T03:19:44.117Z,6.20
2022-10-01T03:20:04.717Z,6.40
2022-10-01T03:20:25.297Z,6.60
2022-10-01T03:20:45.875Z,6.30
2022-10-01T03:21:06.464Z,6.60
2022-10-01T03:21:26.859Z,6.90
2022-10-01T03:21:47.437Z,6.70
2022-10-01T03:22:08.022Z,6.40
2022-10-01T03:22:28.602Z,6.40
2022-10-01T03:22:49.182Z,6.10
2022-10-01T03:23:09.766Z,6.10
2022-10-01T03:23:30.349Z,6.40
2022-10-01T03:23:51.119Z,6.50
2022-10-01T03:24:11.715Z,6.20
2022-10-01T03:24:32.295Z,6.40
2022-10-01T03:24:52.884Z,6.40
2022-10-01T03:25:13.475Z,6.10
2022-10-01T03:25:34.058Z,6.60
2022-10-01T03:25:54.640Z,6.50
2022-10-01T03:26:15.222Z,6.20
2022-10-01T03:26:35.804Z,6.50
2022-10-01T03:26:56.384Z,6.80
2022-10-01T03:27:16.964Z,6.60
2022-10-01T03:27:37.545Z,6.60
2022-10-01T03:27:58.166Z,6.60
2022-10-01T03:28:18.771Z,6.50
2022-10-01T03:28:39.323Z,6.30
2022-10-01T03:28:59.910Z,6.50
2022-10-01T03:29:20.493Z,6.30
2022-10-01T03:29:41.073Z,6.20
2022-10-01T03:30:01.675Z,6.30
2022-10-01T03:30:22.264Z,6.30
2022-10-01T03:30:42.839Z,6.30
2022-10-01T03:31:03.462Z,6.40
2022-10-01T03:31:24.110Z,6.20
2022-10-01T03:31:44.795Z,6.20
2022-10-01T03:32:05.357Z,6.90
2022-10-01T03:32:25.937Z,6.90
2022-10-01T03:32:46.528Z,6.40
2022-10-01T03:33:07.099Z,6.60
2022-10-01T03:33:27.686Z,6.70
2022-10-01T03:33:48.259Z,6.50
2022-10-01T03:34:08.845Z,6.30
2022-10-01T03:34:29.449Z,6.50
2022-10-01T03:34:50.011Z,6.50
2022-10-01T03:35:10.609Z,6.30
2022-10-01T03:35:31.185Z,6.70
2022-10-01T03:35:51.580Z,6.70
2022-10-01T03:36:12.161Z,6.30
2022-10-01T03:36:32.745Z,6.10
2022-10-01T03:36:53.330Z,6.00
2022-10-01T03:37:13.913Z,6.00
2022-10-01T03:37:34.493Z,6.40
2022-10-01T03:37:55.078Z,7.00
2022-10-01T03:38:15.658Z,6.70
2022-10-01T03:38:36.239Z,6.70
2022-10-01T03:38:56.821Z,6.20
2022-10-01T03:39:17.402Z,6.40
2022-10-01T03:39:37.984Z,6.20
2022-10-01T03:39:58.585Z,5.60
2022-10-01T03:40:19.182Z,6.10
2022-10-01T03:40:39.763Z,6.50
2022-10-01T03:41:00.345Z,6.10
2022-10-01T03:41:20.925Z,5.80
2022-10-01T03:41:41.321Z,5.90
2022-10-01T03:42:01.903Z,6.30
2022-10-01T03:42:22.488Z,6.30
2022-10-01T03:42:43.075Z,6.30
2022-10-01T03:43:03.664Z,5.80
2022-10-01T03:43:24.245Z,6.10
2022-10-01T03:43:44.833Z,6.30
2022-10-01T03:44:05.416Z,6.30
2022-10-01T03:44:25.993Z,6.00
2022-10-01T03:44:46.574Z,6.20
2022-10-01T03:45:07.176Z,5.90
2022-10-01T03:45:27.795Z,6.00
2022-10-01T03:45:48.397Z,6.20
2022-10-01T03:46:09.011Z,6.10
2022-10-01T03:46:29.578Z,6.10
2022-10-01T03:46:50.139Z,5.80
2022-10-01T03:47:10.720Z,6.00
2022-10-01T03:47:31.303Z,6.10
2022-10-01T03:47:51.883Z,5.90
2022-10-01T03:48:12.462Z,6.10
2022-10-01T03:48:33.041Z,5.70
2022-10-01T03:48:53.625Z,5.50
2022-10-01T03:49:14.210Z,5.90
2022-10-01T03:49:34.792Z,6.20
2022-10-01T03:49:55.372Z,6.10
2022-10-01T03:50:15.971Z,6.10
2022-10-01T03:50:36.552Z,5.90
2022-10-01T03:50:57.144Z,5.50
2022-10-01T03:51:19.850Z,5.50
2022-10-01T03:51:38.204Z,5.40
2022-10-01T03:51:58.784Z,5.70
2022-10-01T03:52:19.362Z,5.40
2022-10-01T03:52:39.756Z,5.80
2022-10-01T03:53:00.334Z,6.10
2022-10-01T03:53:20.921Z,5.50
2022-10-01T03:53:41.497Z,6.30
2022-10-01T03:54:02.081Z,6.30
2022-10-01T03:54:22.665Z,5.90
2022-10-01T03:54:43.244Z,5.80
2022-10-01T03:55:03.841Z,5.60
2022-10-01T03:55:24.423Z,5.60
2022-10-01T03:55:45.008Z,5.50
2022-10-01T03:56:05.592Z,5.60
2022-10-01T03:56:26.175Z,6.00
2022-10-01T03:56:46.766Z,5.70
2022-10-01T03:57:07.350Z,5.60
2022-10-01T03:57:27.923Z,5.60
2022-10-01T03:57:48.493Z,6.10
2022-10-01T03:58:09.079Z,5.60
2022-10-01T03:58:29.667Z,5.70
2022-10-01T03:58:50.244Z,5.40
2022-10-01T03:59:10.832Z,5.40
2022-10-01T03:59:31.419Z,5.60
2022-10-01T03:59:51.997Z,5.70
2022-10-01T04:00:12.601Z,5.70
2022-10-01T04:00:33.177Z,5.80
2022-10-01T04:00:53.762Z,6.00
2022-10-01T04:01:14.375Z,6.20
2022-10-01T04:01:35.111Z,6.00
2022-10-01T04:01:55.952Z,5.30
2022-10-01T04:02:16.714Z,5.10
2022-10-01T04:02:37.505Z,5.60
2022-10-01T04:02:58.145Z,5.50
2022-10-01T04:03:18.748Z,5.50
2022-10-01T04:03:39.328Z,5.50
2022-10-01T04:03:59.909Z,5.70
2022-10-01T04:04:20.303Z,5.50
2022-10-01T04:04:40.883Z,5.70
2022-10-01T04:05:01.481Z,5.20
2022-10-01T04:05:22.060Z,5.40
2022-10-01T04:05:42.642Z,5.30
2022-10-01T04:06:03.227Z,5.80
2022-10-01T04:06:23.808Z,5.40
2022-10-01T04:06:44.390Z,5.40
2022-10-01T04:07:04.972Z,5.30
2022-10-01T04:07:25.561Z,5.70
2022-10-01T04:07:46.145Z,5.60
2022-10-01T04:08:06.724Z,5.20
2022-10-01T04:08:27.306Z,5.50
2022-10-01T04:08:47.887Z,5.30
2022-10-01T04:09:08.281Z,5.20
2022-10-01T04:09:28.859Z,5.40
2022-10-01T04:09:49.445Z,5.70
2022-10-01T04:10:10.039Z,5.70
2022-10-01T04:10:30.619Z,5.60
2022-10-01T04:10:51.014Z,5.40
2022-10-01T04:11:11.707Z,5.40
2022-10-01T04:11:32.646Z,5.10
2022-10-01T04:11:53.424Z,5.30
2022-10-01T04:12:14.001Z,5.40
2022-10-01T04:12:34.398Z,5.30
2022-10-01T04:12:54.978Z,5.50
2022-10-01T04:13:15.563Z,5.20
2022-10-01T04:13:36.142Z,5.30
2022-10-01T04:13:56.723Z,5.60
2022-10-01T04:14:17.306Z,5.30
2022-10-01T04:14:37.888Z,5.10
2022-10-01T04:14:58.472Z,5.40
2022-10-01T04:15:19.070Z,5.40
2022-10-01T04:15:39.652Z,5.10
2022-10-01T04:16:00.283Z,5.40
2022-10-01T04:16:21.088Z,5.40
2022-10-01T04:16:41.783Z,5.10
2022-10-01T04:17:02.313Z,5.40
2022-10-01T04:17:22.895Z,5.70
2022-10-01T04:17:45.982Z,5.50
2022-10-01T04:18:03.866Z,5.20
2022-10-01T04:18:24.449Z,5.30
2022-10-01T04:18:45.032Z,5.30
2022-10-01T04:19:05.612Z,5.20
2022-10-01T04:19:26.193Z,5.20
2022-10-01T04:19:46.773Z,4.80
2022-10-01T04:20:07.370Z,4.60
2022-10-01T04:20:27.958Z,5.10
2022-10-01T04:20:48.532Z,5.00
2022-10-01T04:21:09.121Z,5.30
2022-10-01T04:21:29.707Z,5.00
2022-10-01T04:21:50.282Z,5.00
2022-10-01T04:22:10.680Z,5.30
2022-10-01T04:22:31.261Z,5.50
2022-10-01T04:22:51.841Z,5.00
2022-10-01T04:23:12.427Z,5.20
2022-10-01T04:23:32.849Z,5.10
2022-10-01T04:23:53.422Z,4.80
2022-10-01T04:24:14.005Z,5.00
2022-10-01T04:24:34.589Z,5.20
2022-10-01T04:24:55.156Z,5.50
2022-10-01T04:25:15.751Z,5.60
2022-10-01T04:25:36.143Z,4.80
2022-10-01T04:25:56.726Z,5.10
2022-10-01T04:26:17.304Z,5.10
2022-10-01T04:26:37.890Z,5.30
2022-10-01T04:26:58.469Z,4.90
2022-10-01T04:27:19.050Z,5.00
2022-10-01T04:27:39.444Z,5.00
2022-10-01T04:27:59.904Z,5.50
2022-10-01T04:28:20.343Z,5.10
2022-10-01T04:28:40.963Z,5.00
2022-10-01T04:29:01.544Z,4.80
2022-10-01T04:29:22.128Z,5.10
2022-10-01T04:29:42.712Z,5.20
2022-10-01T04:30:03.321Z,4.90
2022-10-01T04:30:23.899Z,5.30
2022-10-01T04:30:44.482Z,5.30
2022-10-01T04:31:05.060Z,4.70
2022-10-01T04:31:25.936Z,4.80
2022-10-01T04:31:46.637Z,5.10
2022-10-01T04:32:07.281Z,4.80
2022-10-01T04:32:27.839Z,5.30
2022-10-01T04:32:48.234Z,5.10
2022-10-01T04:33:08.826Z,4.90
2022-10-01T04:33:29.405Z,4.70
2022-10-01T04:33:49.994Z,4.50
2022-10-01T04:34:10.575Z,5.20
2022-10-01T04:34:31.154Z,5.40
2022-10-01T04:34:51.734Z,5.00
2022-10-01T04:35:12.330Z,4.80
2022-10-01T04:35:32.910Z,5.00
2022-10-01T04:35:53.495Z,4.80
2022-10-01T04:36:14.078Z,4.40
2022-10-01T04:36:34.651Z,4.50
2022-10-01T04:36:55.231Z,4.60
2022-10-01T04:37:15.815Z,4.80
2022-10-01T04:37:36.209Z,4.50
2022-10-01T04:37:56.790Z,4.50
2022-10-01T04:38:17.368Z,4.70
2022-10-01T04:38:37.953Z,4.90
2022-10-01T04:39:02.226Z,5.20
2022-10-01T04:39:23.437Z,4.40
2022-10-01T04:39:44.020Z,4.70
2022-10-01T04:40:04.619Z,4.50
2022-10-01T04:40:25.013Z,4.50
2022-10-01T04:40:45.603Z,4.80
2022-10-01T04:41:06.178Z,5.00
2022-10-01T04:41:26.755Z,4.80
2022-10-01T04:41:47.337Z,4.80
2022-10-01T04:42:07.922Z,5.00
2022-10-01T04:42:28.497Z,4.90
2022-10-01T04:42:49.080Z,4.90
2022-10-01T04:43:09.470Z,4.70
2022-10-01T04:43:30.050Z,4.90
2022-10-01T04:43:50.457Z,4.90
2022-10-01T04:44:11.040Z,5.00
2022-10-01T04:44:31.618Z,5.00
2022-10-01T04:44:52.200Z,4.80
2022-10-01T04:45:12.608Z,4.80
2022-10-01T04:45:33.190Z,4.70
2022-10-01T04:45:53.770Z,4.90
2022-10-01T04:46:14.401Z,4.70
2022-10-01T04:46:35.041Z,4.60
2022-10-01T04:46:55.706Z,4.70
2022-10-01T04:47:16.254Z,4.70
2022-10-01T04:47:37.732Z,4.90
2022-10-01T04:47:58.362Z,4.80
2022-10-01T04:48:18.941Z,4.50
2022-10-01T04:48:39.521Z,4.50
2022-10-01T04:49:00.099Z,4.80
2022-10-01T04:49:20.682Z,4.80
2022-10-01T04:49:41.074Z,4.90
2022-10-01T04:50:01.669Z,4.90
2022-10-01T04:50:22.253Z,4.90
2022-10-01T04:50:42.857Z,4.90
2022-10-01T04:51:03.437Z,4.90
2022-10-01T04:51:24.033Z,5.20
2022-10-01T04:51:44.632Z,4.80
2022-10-01T04:52:05.214Z,4.80
2022-10-01T04:52:25.798Z,5.00
2022-10-01T04:52:46.386Z,5.00
2022-10-01T04:53:06.967Z,4.70
2022-10-01T04:53:27.555Z,5.10
2022-10-01T04:53:48.140Z,4.70
2022-10-01T04:54:08.717Z,4.80
2022-10-01T04:54:29.298Z,4.80
2022-10-01T04:54:49.879Z,4.90
2022-10-01T04:55:10.478Z,4.80
2022-10-01T04:55:31.064Z,4.60
2022-10-01T04:55:51.641Z,4.70
2022-10-01T04:56:12.223Z,4.70
2022-10-01T04:56:32.802Z,4.80
2022-10-01T04:56:53.380Z,4.50
2022-10-01T04:57:13.965Z,5.00
2022-10-01T04:57:34.358Z,4.70
2022-10-01T04:57:54.942Z,4.70
2022-10-01T04:58:15.531Z,4.70
2022-10-01T04:58:35.918Z,4.70
2022-10-01T04:58:56.495Z,4.50
2022-10-01T04:59:17.079Z,4.60
2022-10-01T04:59:37.663Z,4.60
2022-10-01T04:59:58.247Z,4.10
2022-10-01T05:00:18.851Z,4.20
2022-10-01T05:00:39.492Z,4.50
2022-10-01T05:01:02.172Z,4.90
2022-10-01T05:01:23.186Z,4.40
2022-10-01T05:01:43.895Z,4.60
2022-10-01T05:02:04.608Z,4.80
2022-10-01T05:02:25.297Z,4.80
2022-10-01T05:02:45.840Z,4.70
2022-10-01T05:03:06.423Z,4.30
2022-10-01T05:03:27.006Z,4.40
2022-10-01T05:03:47.591Z,4.60
2022-10-01T05:04:08.169Z,4.90
2022-10-01T05:04:28.748Z,4.60
2022-10-01T05:04:49.330Z,4.60
2022-10-01T05:05:09.928Z,4.50
2022-10-01T05:05:30.508Z,4.50
2022-10-01T05:05:51.088Z,4.60
2022-10-01T05:06:11.670Z,4.70
2022-10-01T05:06:32.256Z,4.90
2022-10-01T05:06:52.842Z,4.70
2022-10-01T05:07:13.417Z,4.50
2022-10-01T05:07:34.003Z,4.50
2022-10-01T05:07:54.584Z,4.50
2022-10-01T05:08:15.166Z,4.50
2022-10-01T05:08:35.750Z,4.70
2022-10-01T05:08:56.328Z,4.40
2022-10-01T05:09:16.908Z,4.70
2022-10-01T05:09:37.491Z,4.60
2022-10-01T05:09:58.074Z,4.90
2022-10-01T05:10:18.673Z,4.60
2022-10-01T05:10:39.252Z,4.70
2022-10-01T05:10:59.835Z,4.80
2022-10-01T05:11:20.418Z,5.10
2022-10-01T05:11:40.998Z,4.80
2022-10-01T05:12:01.580Z,4.70
2022-10-01T05:12:24.576Z,4.60
2022-10-01T05:12:45.264Z,4.70
2022-10-01T05:13:05.852Z,4.80
2022-10-01T05:13:26.431Z,4.60
2022-10-01T05:13:47.036Z,4.80
2022-10-01T05:14:07.612Z,4.50
2022-10-01T05:14:28.195Z,4.70
2022-10-01T05:14:48.778Z,4.40
2022-10-01T05:15:09.375Z,4.40
2022-10-01T05:15:29.960Z,4.60
2022-10-01T05:15:50.595Z,4.60
2022-10-01T05:16:11.250Z,4.50
2022-10-01T05:16:31.689Z,4.30
2022-10-01T05:16:52.296Z,4.10
2022-10-01T05:17:12.903Z,4.50
2022-10-01T05:17:33.465Z,4.60
2022-10-01T05:17:54.042Z,4.40
2022-10-01T05:18:14.625Z,4.60
2022-10-01T05:18:35.205Z,4.70
2022-10-01T05:18:55.787Z,4.50
2022-10-01T05:19:16.369Z,4.30
2022-10-01T05:19:36.951Z,4.30
2022-10-01T05:19:57.532Z,4.40
2022-10-01T05:20:18.127Z,4.50
2022-10-01T05:20:38.714Z,4.60
2022-10-01T05:20:59.301Z,4.20
2022-10-01T05:21:19.874Z,4.10
2022-10-01T05:21:40.457Z,4.30
2022-10-01T05:22:01.040Z,4.50
2022-10-01T05:22:21.620Z,4.60
2022-10-01T05:22:42.220Z,4.70
2022-10-01T05:23:02.794Z,4.80
2022-10-01T05:23:23.377Z,4.30
2022-10-01T05:23:43.959Z,4.40
2022-10-01T05:24:04.350Z,4.80
2022-10-01T05:24:24.929Z,4.60
2022-10-01T05:24:45.511Z,4.30
2022-10-01T05:25:06.111Z,4.20
2022-10-01T05:25:26.696Z,4.10
2022-10-01T05:25:47.349Z,4.40
2022-10-01T05:26:07.895Z,4.20
2022-10-01T05:26:28.478Z,4.30
2022-10-01T05:26:49.062Z,4.30
2022-10-01T05:27:09.644Z,4.10
2022-10-01T05:27:30.227Z,4.30
2022-10-01T05:27:50.868Z,4.30
2022-10-01T05:28:11.489Z,4.40
2022-10-01T05:28:32.139Z,4.50
2022-10-01T05:28:52.742Z,4.60
2022-10-01T05:29:13.325Z,4.20
2022-10-01T05:29:33.911Z,4.60
2022-10-01T05:29:54.489Z,4.30
2022-10-01T05:30:15.084Z,4.30
2022-10-01T05:30:35.664Z,4.40
2022-10-01T05:30:56.248Z,4.40
2022-10-01T05:31:16.877Z,4.10
2022-10-01T05:31:37.917Z,3.90
2022-10-01T05:31:58.932Z,4.00
2022-10-01T05:32:19.495Z,4.40
2022-10-01T05:32:40.049Z,4.20
2022-10-01T05:33:00.444Z,4.20
2022-10-01T05:33:21.028Z,4.20
2022-10-01T05:33:41.610Z,4.00
2022-10-01T05:34:02.189Z,4.10
2022-10-01T05:34:22.777Z,4.30
2022-10-01T05:34:43.362Z,4.60
2022-10-01T05:35:03.955Z,4.40
2022-10-01T05:35:24.539Z,4.10
2022-10-01T05:35:44.935Z,4.30
2022-10-01T05:36:05.515Z,4.40
2022-10-01T05:36:26.096Z,4.20
2022-10-01T05:36:46.675Z,3.90
2022-10-01T05:37:07.257Z,3.90
2022-10-01T05:37:27.837Z,4.30
2022-10-01T05:37:48.422Z,4.10
2022-10-01T05:38:09.002Z,4.30
2022-10-01T05:38:29.584Z,4.70
2022-10-01T05:38:50.166Z,4.30
2022-10-01T05:39:10.746Z,4.00
2022-10-01T05:39:31.330Z,4.20
2022-10-01T05:39:51.910Z,3.90
2022-10-01T05:40:12.506Z,4.10
2022-10-01T05:40:33.089Z,3.80
2022-10-01T05:40:53.671Z,3.90
2022-10-01T05:41:14.252Z,4.40
2022-10-01T05:41:35.041Z,4.40
2022-10-01T05:41:55.765Z,4.30
2022-10-01T05:42:16.342Z,4.40
2022-10-01T05:42:36.919Z,4.20
2022-10-01T05:42:57.314Z,4.10
2022-10-01T05:43:17.896Z,4.30
2022-10-01T05:43:38.292Z,4.30
2022-10-01T05:43:58.871Z,4.10
2022-10-01T05:44:19.453Z,4.30
2022-10-01T05:44:40.032Z,4.60
2022-10-01T05:45:00.627Z,4.30
2022-10-01T05:45:21.211Z,4.20
2022-10-01T05:45:41.816Z,4.30
2022-10-01T05:46:02.328Z,4.10
2022-10-01T05:46:22.581Z,4.50
2022-10-01T05:46:43.163Z,4.30
2022-10-01T05:47:03.751Z,4.10
2022-10-01T05:47:24.365Z,4.20
2022-10-01T05:47:44.918Z,4.10
2022-10-01T05:48:05.314Z,4.30
2022-10-01T05:48:25.893Z,4.20
2022-10-01T05:48:46.477Z,4.00
2022-10-01T05:49:07.057Z,4.20
2022-10-01T05:49:27.640Z,4.40
2022-10-01T05:49:48.222Z,4.30
2022-10-01T05:50:08.822Z,3.90
2022-10-01T05:50:29.205Z,4.10
2022-10-01T05:50:49.791Z,3.90
2022-10-01T05:51:10.372Z,4.30
2022-10-01T05:51:31.094Z,4.40
2022-10-01T05:51:51.348Z,4.50
2022-10-01T05:52:11.932Z,4.20
2022-10-01T05:52:32.512Z,4.10
2022-10-01T05:52:53.091Z,4.20
2022-10-01T05:53:13.670Z,3.90
2022-10-01T05:53:34.253Z,4.00
2022-10-01T05:53:54.833Z,4.10
2022-10-01T05:54:15.419Z,4.00
2022-10-01T05:54:35.997Z,4.40
2022-10-01T05:54:56.574Z,3.90
2022-10-01T05:55:17.172Z,3.90
2022-10-01T05:55:37.759Z,4.10
2022-10-01T05:55:58.335Z,4.20
2022-10-01T05:56:18.925Z,4.00
2022-10-01T05:56:39.496Z,4.10
2022-10-01T05:57:00.080Z,3.90
2022-10-01T05:57:20.660Z,4.00
2022-10-01T05:57:41.238Z,3.90
2022-10-01T05:58:01.823Z,4.10
2022-10-01T05:58:22.245Z,4.10
2022-10-01T05:58:42.809Z,4.20
2022-10-01T05:59:03.389Z,3.60
2022-10-01T05:59:27.322Z,3.80
2022-10-01T05:59:44.364Z,4.10
2022-10-01T06:00:04.958Z,4.10
2022-10-01T06:00:25.348Z,3.70
2022-10-01T06:00:45.933Z,3.60
2022-10-01T06:01:06.517Z,3.70
2022-10-01T06:01:27.099Z,3.60
2022-10-01T06:01:47.775Z,4.10
2022-10-01T06:02:08.397Z,3.90
2022-10-01T06:02:29.894Z,4.10
2022-10-01T06:02:50.632Z,4.20
2022-10-01T06:03:10.954Z,4.10
2022-10-01T06:03:31.575Z,4.10
2022-10-01T06:03:52.157Z,4.00
2022-10-01T06:04:12.738Z,4.00
2022-10-01T06:04:36.657Z,4.00
2022-10-01T06:04:53.532Z,4.10
2022-10-01T06:05:14.129Z,3.60
2022-10-01T06:05:34.719Z,3.60
2022-10-01T06:05:55.295Z,4.20
2022-10-01T06:06:15.877Z,4.00
2022-10-01T06:06:36.458Z,3.90
2022-10-01T06:06:57.038Z,3.60
2022-10-01T06:07:17.639Z,3.80
2022-10-01T06:07:38.208Z,4.10
2022-10-01T06:07:58.796Z,3.70
2022-10-01T06:08:19.386Z,3.80
2022-10-01T06:08:39.962Z,3.60
2022-10-01T06:09:00.548Z,3.60
2022-10-01T06:09:21.132Z,4.00
2022-10-01T06:09:41.525Z,4.20
2022-10-01T06:10:01.938Z,3.90
2022-10-01T06:10:22.517Z,4.00
2022-10-01T06:10:43.107Z,3.80
2022-10-01T06:11:03.680Z,3.60
2022-10-01T06:11:24.298Z,4.00
2022-10-01T06:11:44.841Z,4.30
2022-10-01T06:12:05.423Z,4.00
2022-10-01T06:12:26.008Z,4.00
2022-10-01T06:12:46.592Z,4.00
2022-10-01T06:13:07.177Z,4.30
2022-10-01T06:13:27.760Z,4.00
2022-10-01T06:13:48.338Z,3.70
2022-10-01T06:14:08.924Z,3.80
2022-10-01T06:14:29.503Z,3.80
2022-10-01T06:14:50.088Z,4.10
2022-10-01T06:15:10.681Z,4.00
2022-10-01T06:15:31.267Z,3.60
2022-10-01T06:15:51.660Z,4.00
2022-10-01T06:16:12.299Z,3.90
2022-10-01T06:16:32.909Z,4.00
2022-10-01T06:16:53.602Z,3.80
2022-10-01T06:17:14.171Z,3.90
2022-10-01T06:17:34.584Z,3.90
2022-10-01T06:17:55.150Z,3.70
2022-10-01T06:18:15.728Z,3.80
2022-10-01T06:18:36.120Z,3.90
2022-10-01T06:18:56.517Z,4.10
2022-10-01T06:19:17.101Z,4.10
2022-10-01T06:19:37.687Z,3.80
2022-10-01T06:19:58.267Z,3.80
2022-10-01T06:20:18.861Z,4.00
2022-10-01T06:20:39.447Z,4.00
2022-10-01T06:21:00.027Z,4.00
2022-10-01T06:21:20.612Z,4.20
2022-10-01T06:21:41.189Z,3.90
2022-10-01T06:22:01.581Z,3.90
2022-10-01T06:22:22.161Z,3.80
2022-10-01T06:22:42.747Z,3.50
2022-10-01T06:23:03.326Z,3.70
2022-10-01T06:23:23.903Z,3.80
2022-10-01T06:23:44.301Z,3.80
2022-10-01T06:24:04.881Z,4.00
2022-10-01T06:24:25.463Z,3.70
2022-10-01T06:24:46.045Z,3.80
2022-10-01T06:25:06.638Z,3.90
2022-10-01T06:25:27.221Z,3.80
2022-10-01T06:25:47.803Z,3.80
2022-10-01T06:26:08.384Z,3.70
2022-10-01T06:26:28.965Z,3.90
2022-10-01T06:26:49.543Z,3.90
2022-10-01T06:27:09.945Z,3.80
2022-10-01T06:27:30.522Z,3.70
2022-10-01T06:27:51.228Z,3.80
2022-10-01T06:28:11.915Z,3.90
2022-10-01T06:28:32.559Z,3.70
2022-10-01T06:28:52.871Z,3.70
2022-10-01T06:29:13.455Z,3.80
2022-10-01T06:29:34.034Z,3.80
2022-10-01T06:29:54.620Z,3.70
2022-10-01T06:30:15.216Z,3.50
2022-10-01T06:30:35.796Z,3.60
2022-10-01T06:30:56.381Z,3.80
2022-10-01T06:31:17.039Z,3.70
2022-10-01T06:31:38.162Z,3.60
2022-10-01T06:31:58.986Z,3.60
2022-10-01T06:32:19.541Z,3.60
2022-10-01T06:32:40.153Z,3.70
2022-10-01T06:33:00.708Z,4.00
2022-10-01T06:33:21.291Z,3.80
2022-10-01T06:33:41.874Z,3.60
2022-10-01T06:34:02.459Z,3.70
2022-10-01T06:34:22.856Z,3.70
2022-10-01T06:34:43.437Z,3.80